Latest Weather Observations for Ulladulla

IDN60801

Issued at 11:13 pm EST Wednesday 14 April 2021 (issued every 10 minutes, with the page automatically refreshed every 10 minutes)

About weather observations | Map of weather stations | Latest weather observations for NSW | Other Formats
Station Details ID: 069138 Name: ULLADULLA AWS Lat: -35.36 Lon: 150.48 Height: 35.7 m
Data from the previous 72 hours. | See also: Recent months at Ulladulla
Date/Time
EST
Temp
°C
App
Temp
°C
Dew
Point
°C
Rel
Hum
%
Delta-T
°C
Wind Press
QNH
hPa
Press
MSL
hPa
Rain since
9am
mm
Dir  Spd
km/h
Gust
km/h
Spd
kts
Gust
kts
14/11:00pm 17.5 15.6 5.1 44 6.0 W 4 7 2 4 1013.4 1013.3 0.0
14/10:30pm 18.6 16.8 5.5 42 6.4 SW 4 17 2 9 1013.3 1013.2 0.0
14/10:00pm 19.5 16.9 4.4 37 7.3 WNW 7 20 4 11 1013.1 1013.0 0.0
14/09:30pm 19.8 16.4 3.9 35 7.6 W 11 20 6 11 1013.0 1012.9 0.0
14/09:00pm 19.8 16.0 3.9 35 7.6 WNW 13 20 7 11 1012.5 1012.4 0.0
14/08:30pm 19.3 16.8 4.6 38 7.1 WSW 7 9 4 5 1012.7 1012.6 0.0
14/08:00pm 21.0 18.1 4.6 34 8.0 SW 9 20 5 11 1012.5 1012.4 0.0
14/07:30pm 20.9 16.7 3.6 32 8.3 NW 15 30 8 16 1011.6 1011.5 0.0
14/07:00pm 20.9 16.6 3.2 31 8.4 NW 15 24 8 13 1011.9 1011.8 0.0
14/06:30pm 21.6 17.6 2.8 29 8.9 WNW 13 32 7 17 1012.0 1011.9 0.0
14/06:00pm 22.1 17.0 2.8 28 9.2 NW 19 39 10 21 1011.7 1011.6 0.0
14/05:30pm 22.7 17.3 2.2 26 9.7 WNW 20 35 11 19 1011.3 1011.2 0.0
14/05:00pm 23.1 19.2 3.6 28 9.5 WNW 13 20 7 11 1010.8 1010.7 0.0
14/04:30pm 24.1 20.9 2.9 25 10.2 W 9 20 5 11 1010.4 1010.3 0.0
14/04:00pm 25.4 21.9 3.4 24 10.8 WNW 11 24 6 13 1010.1 1010.0 0.0
14/03:30pm 25.6 22.0 2.9 23 11.1 NW 11 24 6 13 1009.9 1009.8 0.0
14/03:00pm 24.1 20.5 2.9 25 10.3 WNW 11 24 6 13 1010.1 1010.0 0.0
14/02:30pm 24.1 20.7 4.0 27 9.9 NW 11 26 6 14 1009.9 1009.8 0.0
14/02:00pm 23.6 21.4 6.0 32 9.0 NW 7 15 4 8 1009.9 1009.8 0.0
14/01:30pm 23.5 20.2 4.5 29 9.4 NW 11 22 6 12 1010.0 1009.9 0.0
14/01:00pm 22.5 20.7 7.9 39 7.7 N 7 24 4 13 1010.0 1009.9 0.0
14/12:30pm 22.1 20.9 9.6 45 6.7 NNE 6 13 3 7 1010.6 1010.5 0.0
14/12:00pm 21.5 19.7 7.3 40 7.3 N 6 11 3 6 1011.2 1011.1 0.0
14/11:30am 21.4 19.1 4.9 34 8.1 N 6 9 3 5 1012.0 1011.9 0.0
14/11:00am 21.0 17.5 3.7 32 8.3 NNW 11 17 6 9 1012.3 1012.2 0.0
14/10:30am 20.6 19.0 6.5 40 7.1 NNW 4 6 2 3 1012.6 1012.5 0.0
14/10:00am 20.3 18.6 5.9 39 7.2 N 4 6 2 3 1013.1 1013.0 0.0
14/09:30am 20.6 17.7 4.6 35 7.8 NNW 9 17 5 9 1012.9 1012.8 0.0
14/09:00am 19.1 17.7 5.6 41 6.6 WNW 2 6 1 3 1013.3 1013.2 0.0
14/08:30am 19.1 18.3 8.1 49 5.7 WNW 2 4 1 2 1013.3 1013.2 0.0
14/08:00am 20.4 17.6 3.2 32 8.1 NNW 7 17 4 9 1013.0 1012.9 0.0
14/07:30am 18.8 18.3 7.9 49 5.6 CALM 0 0 0 0 1012.5 1012.4 0.0
14/07:00am 19.3 17.3 4.3 37 7.2 WNW 4 6 2 3 1012.2 1012.1 0.0
14/06:30am 18.4 16.3 3.8 38 6.9 ESE 4 13 2 7 1011.9 1011.8 0.0
14/06:00am 20.4 17.0 1.8 29 8.6 NNW 9 17 5 9 1011.8 1011.7 0.0
14/05:30am 20.3 16.6 2.2 30 8.4 NW 11 22 6 12 1011.6 1011.5 0.0
14/05:00am 18.7 16.3 4.1 38 6.9 WSW 6 15 3 8 1011.7 1011.6 0.0
14/04:30am 16.9 16.3 7.3 53 4.8 CALM 0 0 0 0 1011.4 1011.3 0.0
14/04:00am 17.9 15.7 6.4 47 5.7 N 7 9 4 5 1011.8 1011.7 0.0
14/03:30am 18.5 16.3 9.3 55 4.8 N 11 17 6 9 1011.8 1011.7 0.0
14/03:00am 18.2 16.4 9.3 56 4.7 N 9 19 5 10 1012.2 1012.1 0.0
14/02:30am 17.1 14.5 9.3 60 4.1 N 13 20 7 11 1012.7 1012.6 0.0
14/02:00am 16.3 14.3 8.5 60 4.0 N 9 13 5 7 1013.2 1013.1 0.0
14/01:30am 16.4 14.1 9.1 62 3.8 N 11 15 6 8 1013.6 1013.5 0.0
14/01:00am 17.6 15.2 10.2 62 3.9 N 13 22 7 12 1013.9 1013.8 0.0
14/12:30am 17.9 15.7 10.8 63 3.8 N 13 22 7 12 1014.3 1014.2 0.0
14/12:00am 17.1 14.6 10.9 67 3.3 N 15 22 8 12 1014.8 1014.7 0.0
 
Date/Time
EST
Temp
°C
App
Temp
°C
Dew
Point
°C
Rel
Hum
%
Delta-T
°C
Wind Press
QNH
hPa
Press
MSL
hPa
Rain since
9am
mm
Dir  Spd
km/h
Gust
km/h
Spd
kts
Gust
kts
13/11:30pm 17.5 14.3 11.1 66 3.5 N 19 26 10 14 1014.8 1014.7 0.0
13/11:00pm 17.4 15.6 11.0 66 3.4 N 11 20 6 11 1015.2 1015.1 0.0
13/10:30pm 17.0 15.7 11.1 68 3.2 N 9 13 5 7 1015.7 1015.6 0.0
13/10:00pm 17.6 15.6 11.6 68 3.3 N 13 17 7 9 1015.9 1015.8 0.0
13/09:30pm 16.8 15.1 11.1 69 3.1 N 11 19 6 10 1016.2 1016.1 0.0
13/09:00pm 16.8 15.3 10.6 67 3.3 N 9 15 5 8 1016.4 1016.3 0.0
13/08:30pm 16.8 15.7 10.6 67 3.3 N 7 11 4 6 1016.3 1016.2 0.0
13/08:00pm 16.9 15.5 11.0 68 3.2 N 9 13 5 7 1016.4 1016.3 0.0
13/07:30pm 17.2 15.7 10.6 65 3.5 N 9 17 5 9 1016.6 1016.5 0.0
13/07:00pm 17.3 16.1 10.4 64 3.7 N 7 13 4 7 1016.8 1016.7 0.0
13/06:30pm 17.7 15.9 10.8 64 3.7 N 11 17 6 9 1016.7 1016.6 0.0
13/06:00pm 17.8 14.9 10.9 64 3.7 N 17 24 9 13 1016.3 1016.2 0.0
13/05:30pm 18.2 14.9 11.0 63 3.9 N 19 30 10 16 1016.2 1016.1 0.0
13/05:00pm 18.2 15.2 10.6 61 4.1 N 17 32 9 17 1016.3 1016.2 0.0
13/04:30pm 18.6 16.8 10.7 60 4.3 N 11 20 6 11 1016.3 1016.2 0.0
13/04:00pm 18.6 16.2 9.9 57 4.6 NE 13 28 7 15 1016.4 1016.3 0.0
13/03:30pm 18.7 15.3 10.5 59 4.4 NE 19 28 10 15 1016.8 1016.7 0.0
13/03:00pm 18.9 16.3 9.4 54 5.0 NE 13 24 7 13 1017.1 1017.0 0.0
13/02:30pm 18.9 16.9 10.2 57 4.7 ENE 11 19 6 10 1017.4 1017.3 0.0
13/02:00pm 18.9 16.2 8.8 52 5.3 ENE 13 20 7 11 1017.7 1017.6 0.0
13/01:30pm 18.9 16.6 9.1 53 5.1 ENE 11 20 6 11 1018.2 1018.1 0.0
13/01:00pm 18.8 16.1 7.3 47 5.8 NE 11 15 6 8 1018.7 1018.7 0.0
13/12:30pm 18.3 16.1 7.7 50 5.4 NE 9 15 5 8 1019.3 1019.3 0.0
13/12:00pm 17.9 15.4 6.7 48 5.6 NE 9 15 5 8 1020.0 1020.0 0.0
13/11:30am 18.0 16.0 7.1 49 5.5 NE 7 11 4 6 1020.6 1020.6 0.0
13/11:00am 18.0 15.7 5.6 44 6.0 NE 7 11 4 6 1021.2 1021.2 0.0
13/10:30am 17.8 15.5 5.7 45 5.9 NE 7 11 4 6 1021.7 1021.7 0.0
13/10:00am 17.7 15.9 5.3 44 6.0 ENE 4 9 2 5 1022.1 1022.1 0.0
13/09:30am 18.3 17.1 4.8 41 6.5 CALM 0 2 0 1 1022.3 1022.3 0.0
13/09:00am 17.1 15.1 4.4 43 6.0 WSW 4 7 2 4 1022.3 1022.3 0.0
13/08:30am 16.8 14.6 5.1 46 5.6 W 6 7 3 4 1022.4 1022.4 0.0
13/08:00am 15.9 14.2 6.1 52 4.7 W 4 7 2 4 1022.1 1022.1 0.0
13/07:30am 14.4 12.6 5.5 55 4.2 WNW 4 6 2 3 1022.1 1022.1 0.0
13/07:00am 12.5 10.8 5.9 64 3.1 WNW 4 7 2 4 1021.8 1021.8 0.0
13/06:30am 10.7 8.4 5.0 68 2.6 WNW 6 9 3 5 1021.5 1021.5 0.0
13/06:00am 10.0 7.7 5.0 71 2.2 W 6 7 3 4 1021.4 1021.4 0.0
13/05:30am 10.2 7.8 5.2 71 2.3 W 7 11 4 6 1021.2 1021.2 0.0
13/05:00am 9.8 7.4 5.2 73 2.1 W 7 9 4 5 1021.0 1021.0 0.0
13/04:30am 10.1 7.3 5.3 72 2.2 W 9 13 5 7 1020.9 1020.9 0.0
13/04:00am 10.1 7.8 5.5 73 2.1 W 7 9 4 5 1020.9 1020.9 0.0
13/03:30am 10.2 7.9 5.6 73 2.1 W 7 9 4 5 1020.7 1020.7 0.0
13/03:00am 10.8 8.6 6.0 72 2.2 W 7 9 4 5 1020.9 1020.9 0.0
13/02:30am 10.8 8.7 5.8 71 2.3 W 6 9 3 5 1020.9 1020.9 0.0
13/02:00am 10.9 8.6 5.9 71 2.3 W 7 9 4 5 1021.2 1021.2 0.0
13/01:30am 11.4 9.1 5.5 67 2.7 W 7 9 4 5 1021.6 1021.6 0.0
13/01:00am 12.7 9.7 5.8 63 3.2 SW 11 17 6 9 1021.8 1021.8 0.0
13/12:30am 12.6 9.6 6.2 65 3.0 WSW 11 17 6 9 1021.9 1021.9 0.0
13/12:00am 12.5 9.5 6.1 65 3.0 WSW 11 17 6 9 1021.7 1021.7 0.0
 
Date/Time
EST
Temp
°C
App
Temp
°C
Dew
Point
°C
Rel
Hum
%
Delta-T
°C
Wind Press
QNH
hPa
Press
MSL
hPa
Rain since
9am
mm
Dir  Spd
km/h
Gust
km/h
Spd
kts
Gust
kts
12/11:30pm 13.0 9.7 6.6 65 3.1 WSW 13 24 7 13 1021.7 1021.7 0.0
12/11:00pm 12.6 9.9 7.3 70 2.6 WSW 11 19 6 10 1021.7 1021.7 0.0
12/10:30pm 12.9 10.3 7.6 70 2.6 W 11 19 6 10 1021.6 1021.6 0.0
12/10:00pm 13.6 11.1 8.0 69 2.8 WSW 11 15 6 8 1021.5 1021.5 0.0
12/09:30pm 14.5 12.0 8.0 65 3.2 WSW 11 19 6 10 1021.3 1021.3 0.0
12/09:00pm 15.8 13.0 8.5 62 3.7 SW 13 20 7 11 1020.9 1020.9 0.0
12/08:30pm 16.1 13.0 8.8 62 3.7 SSW 15 33 8 18 1020.7 1020.7 0.0
12/08:00pm 17.0 12.2 10.4 65 3.5 SSW 26 37 14 20 1020.5 1020.5 0.0
12/07:30pm 17.0 11.7 9.9 63 3.7 S 28 39 15 21 1020.0 1020.0 0.0
12/07:00pm 17.0 12.3 9.2 60 4.0 SSW 24 30 13 16 1019.6 1019.6 0.0
12/06:30pm 17.0 12.3 9.4 61 4.0 S 24 35 13 19 1019.2 1019.2 0.0
12/06:00pm 17.1 12.5 9.5 61 4.0 S 24 33 13 18 1018.8 1018.8 0.0
12/05:30pm 17.1 12.5 8.0 55 4.6 SSW 22 32 12 17 1018.4 1018.4 0.0
12/05:00pm 17.2 12.9 7.8 54 4.7 S 20 30 11 16 1018.1 1018.0 0.0
12/04:30pm 17.4 13.3 7.7 53 4.9 SSW 19 28 10 15 1018.0 1017.9 0.0
12/04:00pm 17.4 13.3 8.0 54 4.8 S 19 26 10 14 1018.0 1017.9 0.0
12/03:30pm 17.6 13.7 8.5 55 4.7 S 19 26 10 14 1017.9 1017.8 0.0
12/03:00pm 17.9 14.0 8.5 54 4.8 S 19 30 10 16 1017.9 1017.8 0.0
12/02:30pm 18.4 15.0 7.8 50 5.4 S 15 24 8 13 1017.8 1017.7 0.0
12/02:00pm 18.4 15.3 7.2 48 5.6 S 13 20 7 11 1017.8 1017.7 0.0
12/01:30pm 18.2 14.9 6.4 46 5.8 S 13 20 7 11 1017.8 1017.7 0.0
12/01:00pm 17.8 13.1 6.0 46 5.8 S 20 28 11 15 1017.9 1017.8 0.0
12/12:30pm 17.6 11.9 4.9 43 6.1 SSW 24 37 13 20 1018.4 1018.4 0.0
12/12:00pm 18.0 13.4 3.9 39 6.6 SSW 17 26 9 14 1018.7 1018.7 0.0
12/11:30am 17.7 13.7 5.0 43 6.1 SSW 15 24 8 13 1018.9 1018.9 0.0
12/11:00am 17.1 12.7 4.8 44 5.8 SSW 17 28 9 15 1018.9 1018.9 0.0
12/10:30am 16.4 11.8 3.5 42 5.9 SW 17 26 9 14 1018.9 1018.9 0.0
12/10:00am 16.2 12.7 3.6 43 5.8 SW 11 20 6 11 1018.8 1018.8 0.0
12/09:30am 15.5 11.9 3.0 43 5.7 WSW 11 19 6 10 1018.8 1018.8 0.0
12/09:00am 14.7 10.9 1.9 42 5.6 WSW 11 20 6 11 1018.7 1018.7 0.0
12/08:30am 14.2 10.8 1.8 43 5.4 WSW 9 19 5 10 1018.6 1018.6 0.0
12/08:00am 13.3 10.2 1.6 45 5.0 W 7 13 4 7 1018.2 1018.1 0.0
12/07:30am 12.3 9.5 1.9 49 4.5 WNW 6 13 3 7 1017.8 1017.7 0.0
12/07:00am 10.7 7.6 1.3 52 3.9 W 7 15 4 8 1017.4 1017.3 0.0
12/06:30am 9.5 6.3 0.7 54 3.6 W 7 13 4 7 1016.9 1016.8 0.0
12/06:00am 9.6 6.4 0.5 53 3.7 W 7 13 4 7 1016.7 1016.6 0.0
12/05:30am 9.6 6.4 0.8 54 3.6 W 7 13 4 7 1016.3 1016.2 0.0
12/05:00am 9.6 6.6 1.0 55 3.5 W 6 11 3 6 1016.0 1015.9 0.0
12/04:30am 9.9 6.9 0.5 52 3.8 WNW 6 11 3 6 1015.6 1015.5 0.0
12/04:00am 9.6 6.1 1.0 55 3.5 W 9 15 5 8 1015.3 1015.2 0.0
12/03:30am 9.3 6.1 0.7 55 3.5 W 7 11 4 6 1015.2 1015.1 0.0
12/03:00am 9.6 6.6 1.0 55 3.5 W 6 9 3 5 1015.1 1015.0 0.0
12/02:30am 10.2 6.7 1.1 53 3.8 WSW 9 15 5 8 1014.9 1014.8 0.0
12/02:00am 10.3 7.8 1.4 54 3.7 WNW 4 9 2 5 1015.1 1015.0 0.0
12/01:30am 10.8 7.8 1.9 54 3.8 WSW 7 15 4 8 1015.2 1015.1 0.0
12/01:00am 11.1 8.1 1.9 53 3.9 WSW 7 15 4 8 1015.1 1015.0 0.0
12/12:30am 11.1 7.4 2.2 54 3.8 WSW 11 17 6 9 1014.8 1014.7 0.0
12/12:00am 10.7 7.4 2.5 57 3.5 WSW 9 15 5 8 1014.8 1014.7 0.0
 
Date/Time
EST
Temp
°C
App
Temp
°C
Dew
Point
°C
Rel
Hum
%
Delta-T
°C
Wind Press
QNH
hPa
Press
MSL
hPa
Rain since
9am
mm
Dir  Spd
km/h
Gust
km/h
Spd
kts
Gust
kts
11/11:30pm 10.4 7.4 2.0 56 3.6 W 7 13 4 7 1014.5 1014.4 0.0

Other formats

Comma delimited format used in spreadsheet applications
http://www.bom.gov.au/fwo/IDN60801/IDN60801.94938.axf

JavaScript Object Notation format (JSON) in row-major order
http://www.bom.gov.au/fwo/IDN60801/IDN60801.94938.json

Data quality

Most of these data are generated automatically and are frequently updated. Quality checks on data are not normally performed. It is possible for incorrect values to appear. Refer to information at About Latest Weather Observations and please check the disclaimer before using these data.